TimeCDT,TemperatureF,Dew PointF,Humidity,Sea Level PressureIn,VisibilityMPH,Wind Direction,Wind SpeedMPH,Gust SpeedMPH,PrecipitationIn,Events,Conditions,WindDirDegrees,DateUTC
12:53 AM,33.1,30.0,89,29.86,8.0,North,10.4,-,N/A,,Overcast,10,2013-04-07 05:53:00
1:53 AM,32.0,30.0,92,29.86,7.0,North,8.1,-,N/A,,Overcast,360,2013-04-07 06:53:00
2:53 AM,32.0,30.0,92,29.87,6.0,North,6.9,-,N/A,,Overcast,350,2013-04-07 07:53:00
3:53 AM,32.0,30.0,92,29.88,6.0,North,4.6,-,N/A,,Overcast,360,2013-04-07 08:53:00
4:16 AM,30.2,28.4,93,29.84,6.0,North,5.8,-,N/A,,Overcast,360,2013-04-07 09:16:00
4:53 AM,30.9,30.0,96,29.88,5.0,North,4.6,-,N/A,,Overcast,10,2013-04-07 09:53:00
5:53 AM,30.9,28.9,92,29.89,6.0,NE,4.6,-,N/A,,Overcast,50,2013-04-07 10:53:00
6:53 AM,30.0,28.9,96,29.90,7.0,ENE,4.6,-,N/A,,Overcast,60,2013-04-07 11:53:00
7:53 AM,30.0,28.9,96,29.92,5.0,NNE,4.6,-,N/A,,Overcast,30,2013-04-07 12:53:00
8:53 AM,30.0,28.9,96,29.93,6.0,Calm,Calm,-,N/A,,Overcast,0,2013-04-07 13:53:00
9:53 AM,30.9,28.9,92,29.91,6.0,ESE,3.5,-,N/A,,Overcast,120,2013-04-07 14:53:00
10:43 AM,32.0,28.4,87,29.85,9.0,ESE,6.9,-,N/A,,Overcast,120,2013-04-07 15:43:00
10:53 AM,32.0,28.9,88,29.90,10.0,SE,6.9,-,N/A,,Overcast,130,2013-04-07 15:53:00
11:53 AM,34.0,30.0,85,29.88,10.0,ESE,8.1,-,N/A,,Overcast,120,2013-04-07 16:53:00
12:42 PM,37.4,30.2,75,29.81,10.0,ESE,9.2,-,N/A,,Overcast,110,2013-04-07 17:42:00
12:53 PM,37.0,30.9,79,29.86,10.0,East,9.2,-,N/A,,Overcast,100,2013-04-07 17:53:00
1:12 PM,39.2,33.8,81,29.80,10.0,ENE,11.5,-,N/A,,Scattered Clouds,70,2013-04-07 18:12:00
1:53 PM,42.1,34.0,73,29.83,5.0,East,8.1,-,N/A,,Haze,100,2013-04-07 18:53:00
2:53 PM,42.1,34.0,73,29.80,7.0,SE,8.1,-,N/A,,Overcast,130,2013-04-07 19:53:00
3:53 PM,44.1,35.1,71,29.78,10.0,ESE,11.5,18.4,N/A,,Overcast,120,2013-04-07 20:53:00
4:53 PM,43.0,35.1,74,29.78,10.0,ESE,6.9,-,N/A,,Overcast,120,2013-04-07 21:53:00
5:53 PM,44.1,39.0,82,29.76,6.0,SE,6.9,-,0.00,Rain,Light Rain,130,2013-04-07 22:53:00
6:53 PM,43.0,39.9,89,29.75,5.0,ESE,8.1,-,0.04,,Overcast,120,2013-04-07 23:53:00
7:35 PM,42.8,39.2,87,29.70,5.0,SE,6.9,-,N/A,,Overcast,130,2013-04-08 00:35:00
7:53 PM,42.1,39.9,92,29.74,5.0,ESE,6.9,-,N/A,,Overcast,120,2013-04-08 00:53:00
8:08 PM,42.8,39.2,87,29.70,5.0,ESE,8.1,-,N/A,,Overcast,110,2013-04-08 01:08:00
8:31 PM,42.8,39.2,87,29.69,6.0,ESE,4.6,-,N/A,,Overcast,120,2013-04-08 01:31:00
8:53 PM,42.1,39.9,92,29.74,5.0,SE,5.8,-,N/A,,Overcast,130,2013-04-08 01:53:00
9:24 PM,41.0,39.2,93,29.69,5.0,ESE,4.6,-,N/A,,Overcast,110,2013-04-08 02:24:00
9:33 PM,41.0,39.2,93,29.69,5.0,East,4.6,-,N/A,,Overcast,100,2013-04-08 02:33:00
9:41 PM,41.0,39.2,93,29.69,5.0,East,3.5,-,N/A,,Overcast,100,2013-04-08 02:41:00
9:53 PM,41.0,39.0,93,29.73,4.0,ESE,4.6,-,N/A,,Overcast,110,2013-04-08 02:53:00
10:15 PM,41.0,39.2,93,29.68,4.0,East,4.6,-,N/A,,Overcast,80,2013-04-08 03:15:00
10:49 PM,39.2,39.2,100,29.68,3.0,East,4.6,-,N/A,,Overcast,90,2013-04-08 03:49:00
10:53 PM,39.9,39.0,97,29.73,3.0,East,3.5,-,N/A,,Overcast,100,2013-04-08 03:53:00
11:03 PM,39.2,39.2,100,29.69,3.0,East,3.5,-,N/A,,Overcast,90,2013-04-08 04:03:00
11:15 PM,39.2,39.2,100,29.68,3.0,ENE,4.6,-,N/A,,Overcast,60,2013-04-08 04:15:00
11:23 PM,39.2,37.4,93,29.68,2.5,ENE,4.6,-,N/A,,Overcast,70,2013-04-08 04:23:00
11:53 PM,39.0,39.0,100,29.72,2.5,Calm,Calm,-,N/A,,Overcast,0,2013-04-08 04:53:00